sensor_id;sensor_type;location;lat;lon;timestamp;P1;durP1;ratioP1;P2;durP2;ratioP2
36829;SDS011;22767;47.328;9.640;2023-04-24T00:01:04;0.52;;;0.20;;
36829;SDS011;22767;47.328;9.640;2023-04-24T00:03:32;1.00;;;0.20;;
36829;SDS011;22767;47.328;9.640;2023-04-24T00:05:58;0.20;;;0.15;;
36829;SDS011;22767;47.328;9.640;2023-04-24T00:08:25;1.05;;;0.13;;
36829;SDS011;22767;47.328;9.640;2023-04-24T00:10:52;0.75;;;0.10;;
36829;SDS011;22767;47.328;9.640;2023-04-24T00:13:25;2.03;;;0.20;;
36829;SDS011;22767;47.328;9.640;2023-04-24T00:15:53;1.10;;;0.20;;
36829;SDS011;22767;47.328;9.640;2023-04-24T00:18:19;0.30;;;0.20;;
36829;SDS011;22767;47.328;9.640;2023-04-24T00:20:45;0.68;;;0.35;;
36829;SDS011;22767;47.328;9.640;2023-04-24T00:23:11;0.43;;;0.20;;
36829;SDS011;22767;47.328;9.640;2023-04-24T00:25:38;2.30;;;0.17;;
36829;SDS011;22767;47.328;9.640;2023-04-24T00:28:04;1.80;;;0.30;;
36829;SDS011;22767;47.328;9.640;2023-04-24T00:30:31;2.30;;;0.30;;
36829;SDS011;22767;47.328;9.640;2023-04-24T00:32:57;0.43;;;0.25;;
36829;SDS011;22767;47.328;9.640;2023-04-24T00:35:23;1.10;;;0.45;;
36829;SDS011;22767;47.328;9.640;2023-04-24T00:37:49;0.73;;;0.50;;
36829;SDS011;22767;47.328;9.640;2023-04-24T00:40:15;1.58;;;0.50;;
36829;SDS011;22767;47.328;9.640;2023-04-24T00:42:41;0.73;;;0.40;;
36829;SDS011;22767;47.328;9.640;2023-04-24T00:45:15;1.67;;;0.30;;
36829;SDS011;22767;47.328;9.640;2023-04-24T00:47:41;0.40;;;0.17;;
36829;SDS011;22767;47.328;9.640;2023-04-24T00:50:07;0.73;;;0.15;;
36829;SDS011;22767;47.328;9.640;2023-04-24T00:52:34;0.43;;;0.30;;
36829;SDS011;22767;47.328;9.640;2023-04-24T00:55:00;0.47;;;0.10;;
36829;SDS011;22767;47.328;9.640;2023-04-24T00:57:27;1.00;;;0.30;;
36829;SDS011;22767;47.328;9.640;2023-04-24T00:59:53;0.45;;;0.10;;
36829;SDS011;22767;47.328;9.640;2023-04-24T01:02:19;0.10;;;0.10;;
36829;SDS011;22767;47.328;9.640;2023-04-24T01:04:47;0.28;;;0.20;;
36829;SDS011;22767;47.328;9.640;2023-04-24T01:07:13;0.38;;;0.10;;
36829;SDS011;22767;47.328;9.640;2023-04-24T01:09:40;0.30;;;0.10;;
36829;SDS011;22767;47.328;9.640;2023-04-24T01:12:09;0.00;;;0.00;;
36829;SDS011;22767;47.328;9.640;2023-04-24T01:14:35;1.65;;;0.20;;
36829;SDS011;22767;47.328;9.640;2023-04-24T01:17:02;0.30;;;0.10;;
36829;SDS011;22767;47.328;9.640;2023-04-24T01:19:28;0.40;;;0.05;;
36829;SDS011;22767;47.328;9.640;2023-04-24T01:21:54;0.50;;;0.10;;
36829;SDS011;22767;47.328;9.640;2023-04-24T01:24:23;1.35;;;0.10;;
36829;SDS011;22767;47.328;9.640;2023-04-24T01:26:49;1.85;;;0.32;;
36829;SDS011;22767;47.328;9.640;2023-04-24T01:29:15;0.70;;;0.20;;
36829;SDS011;22767;47.328;9.640;2023-04-24T01:31:48;1.60;;;0.10;;
36829;SDS011;22767;47.328;9.640;2023-04-24T01:34:14;0.68;;;0.20;;
36829;SDS011;22767;47.328;9.640;2023-04-24T01:36:47;0.80;;;0.20;;
36829;SDS011;22767;47.328;9.640;2023-04-24T01:39:13;0.20;;;0.10;;
36829;SDS011;22767;47.328;9.640;2023-04-24T01:41:47;0.50;;;0.10;;
36829;SDS011;22767;47.328;9.640;2023-04-24T01:44:14;1.17;;;0.22;;
36829;SDS011;22767;47.328;9.640;2023-04-24T01:46:41;5.70;;;0.30;;
36829;SDS011;22767;47.328;9.640;2023-04-24T01:49:07;0.25;;;0.03;;
36829;SDS011;22767;47.328;9.640;2023-04-24T01:51:33;0.30;;;0.10;;
36829;SDS011;22767;47.328;9.640;2023-04-24T01:53:59;0.95;;;0.20;;
36829;SDS011;22767;47.328;9.640;2023-04-24T01:56:25;1.27;;;0.20;;
36829;SDS011;22767;47.328;9.640;2023-04-24T01:58:54;0.73;;;0.20;;
36829;SDS011;22767;47.328;9.640;2023-04-24T02:01:21;1.50;;;0.20;;
36829;SDS011;22767;47.328;9.640;2023-04-24T02:03:47;0.57;;;0.20;;
36829;SDS011;22767;47.328;9.640;2023-04-24T02:06:13;0.43;;;0.17;;
36829;SDS011;22767;47.328;9.640;2023-04-24T02:08:39;0.17;;;0.10;;
36829;SDS011;22767;47.328;9.640;2023-04-24T02:11:05;0.90;;;0.10;;
36829;SDS011;22767;47.328;9.640;2023-04-24T02:13:41;1.10;;;0.10;;
36829;SDS011;22767;47.328;9.640;2023-04-24T02:16:07;1.08;;;0.20;;
36829;SDS011;22767;47.328;9.640;2023-04-24T02:18:33;1.35;;;0.25;;
36829;SDS011;22767;47.328;9.640;2023-04-24T02:20:59;0.80;;;0.10;;
36829;SDS011;22767;47.328;9.640;2023-04-24T02:23:25;0.70;;;0.17;;
36829;SDS011;22767;47.328;9.640;2023-04-24T02:25:52;0.98;;;0.10;;
36829;SDS011;22767;47.328;9.640;2023-04-24T02:28:25;0.20;;;0.10;;
36829;SDS011;22767;47.328;9.640;2023-04-24T02:30:51;0.30;;;0.20;;
36829;SDS011;22767;47.328;9.640;2023-04-24T02:33:17;0.95;;;0.20;;
36829;SDS011;22767;47.328;9.640;2023-04-24T02:35:43;0.52;;;0.13;;
36829;SDS011;22767;47.328;9.640;2023-04-24T02:38:09;0.30;;;0.20;;
36829;SDS011;22767;47.328;9.640;2023-04-24T02:40:35;1.13;;;0.10;;
36829;SDS011;22767;47.328;9.640;2023-04-24T02:43:07;0.65;;;0.20;;
36829;SDS011;22767;47.328;9.640;2023-04-24T02:45:34;0.32;;;0.10;;
36829;SDS011;22767;47.328;9.640;2023-04-24T02:48:00;0.10;;;0.10;;
36829;SDS011;22767;47.328;9.640;2023-04-24T02:50:26;0.85;;;0.20;;
36829;SDS011;22767;47.328;9.640;2023-04-24T02:52:52;0.10;;;0.10;;
36829;SDS011;22767;47.328;9.640;2023-04-24T02:55:18;0.70;;;0.10;;
36829;SDS011;22767;47.328;9.640;2023-04-24T02:57:45;0.38;;;0.10;;
36829;SDS011;22767;47.328;9.640;2023-04-24T03:00:11;1.23;;;0.28;;
36829;SDS011;22767;47.328;9.640;2023-04-24T03:02:38;0.10;;;0.10;;
36829;SDS011;22767;47.328;9.640;2023-04-24T03:05:04;0.38;;;0.10;;
36829;SDS011;22767;47.328;9.640;2023-04-24T03:07:36;0.85;;;0.10;;
36829;SDS011;22767;47.328;9.640;2023-04-24T03:12:29;0.60;;;0.10;;
36829;SDS011;22767;47.328;9.640;2023-04-24T03:14:56;0.93;;;0.20;;
36829;SDS011;22767;47.328;9.640;2023-04-24T03:17:22;1.55;;;0.35;;
36829;SDS011;22767;47.328;9.640;2023-04-24T03:19:54;0.88;;;0.20;;
36829;SDS011;22767;47.328;9.640;2023-04-24T03:22:21;0.40;;;0.20;;
36829;SDS011;22767;47.328;9.640;2023-04-24T03:24:47;0.30;;;0.15;;
36829;SDS011;22767;47.328;9.640;2023-04-24T03:27:13;0.77;;;0.15;;
36829;SDS011;22767;47.328;9.640;2023-04-24T03:29:39;0.43;;;0.20;;
36829;SDS011;22767;47.328;9.640;2023-04-24T03:32:05;2.47;;;0.20;;
36829;SDS011;22767;47.328;9.640;2023-04-24T03:34:31;0.75;;;0.20;;
36829;SDS011;22767;47.328;9.640;2023-04-24T03:37:03;1.38;;;0.20;;
36829;SDS011;22767;47.328;9.640;2023-04-24T03:39:29;0.95;;;0.50;;
36829;SDS011;22767;47.328;9.640;2023-04-24T03:41:55;0.70;;;0.28;;
36829;SDS011;22767;47.328;9.640;2023-04-24T03:44:22;0.93;;;0.20;;
36829;SDS011;22767;47.328;9.640;2023-04-24T03:46:48;1.48;;;0.45;;
36829;SDS011;22767;47.328;9.640;2023-04-24T03:49:14;1.40;;;0.20;;
36829;SDS011;22767;47.328;9.640;2023-04-24T03:51:40;0.90;;;0.30;;
36829;SDS011;22767;47.328;9.640;2023-04-24T03:54:12;0.40;;;0.20;;
36829;SDS011;22767;47.328;9.640;2023-04-24T03:56:38;0.60;;;0.30;;
36829;SDS011;22767;47.328;9.640;2023-04-24T03:59:05;0.20;;;0.10;;
36829;SDS011;22767;47.328;9.640;2023-04-24T04:01:31;0.77;;;0.30;;
36829;SDS011;22767;47.328;9.640;2023-04-24T04:03:57;0.95;;;0.20;;
36829;SDS011;22767;47.328;9.640;2023-04-24T04:06:23;1.55;;;0.35;;
36829;SDS011;22767;47.328;9.640;2023-04-24T04:08:49;0.60;;;0.28;;
36829;SDS011;22767;47.328;9.640;2023-04-24T04:11:15;1.25;;;0.73;;
36829;SDS011;22767;47.328;9.640;2023-04-24T04:13:41;0.30;;;0.20;;
36829;SDS011;22767;47.328;9.640;2023-04-24T04:16:08;0.50;;;0.20;;
36829;SDS011;22767;47.328;9.640;2023-04-24T04:18:34;0.73;;;0.28;;
36829;SDS011;22767;47.328;9.640;2023-04-24T04:21:00;0.20;;;0.20;;
36829;SDS011;22767;47.328;9.640;2023-04-24T04:23:26;1.42;;;0.20;;
36829;SDS011;22767;47.328;9.640;2023-04-24T04:25:53;1.90;;;0.38;;
36829;SDS011;22767;47.328;9.640;2023-04-24T04:28:19;0.40;;;0.30;;
36829;SDS011;22767;47.328;9.640;2023-04-24T04:30:46;1.10;;;0.43;;
36829;SDS011;22767;47.328;9.640;2023-04-24T04:33:20;0.40;;;0.40;;
36829;SDS011;22767;47.328;9.640;2023-04-24T04:35:46;2.35;;;0.40;;
36829;SDS011;22767;47.328;9.640;2023-04-24T04:38:17;1.38;;;0.40;;
36829;SDS011;22767;47.328;9.640;2023-04-24T04:40:43;1.27;;;0.40;;
36829;SDS011;22767;47.328;9.640;2023-04-24T04:43:09;2.30;;;0.70;;
36829;SDS011;22767;47.328;9.640;2023-04-24T04:45:40;1.95;;;0.40;;
36829;SDS011;22767;47.328;9.640;2023-04-24T04:48:16;1.67;;;0.80;;
36829;SDS011;22767;47.328;9.640;2023-04-24T04:50:46;0.82;;;0.47;;
36829;SDS011;22767;47.328;9.640;2023-04-24T04:53:12;1.20;;;0.50;;
36829;SDS011;22767;47.328;9.640;2023-04-24T04:55:44;1.85;;;0.90;;
36829;SDS011;22767;47.328;9.640;2023-04-24T04:58:11;1.58;;;0.80;;
36829;SDS011;22767;47.328;9.640;2023-04-24T05:00:37;5.15;;;3.10;;
36829;SDS011;22767;47.328;9.640;2023-04-24T05:03:04;6.75;;;3.75;;
36829;SDS011;22767;47.328;9.640;2023-04-24T05:05:31;5.38;;;3.20;;
36829;SDS011;22767;47.328;9.640;2023-04-24T05:07:57;5.90;;;2.33;;
36829;SDS011;22767;47.328;9.640;2023-04-24T05:10:23;3.40;;;1.45;;
36829;SDS011;22767;47.328;9.640;2023-04-24T05:12:49;3.92;;;1.90;;
36829;SDS011;22767;47.328;9.640;2023-04-24T05:15:15;2.67;;;1.38;;
36829;SDS011;22767;47.328;9.640;2023-04-24T05:17:41;2.78;;;1.00;;
36829;SDS011;22767;47.328;9.640;2023-04-24T05:20:07;1.38;;;0.70;;
36829;SDS011;22767;47.328;9.640;2023-04-24T05:22:34;1.17;;;0.70;;
36829;SDS011;22767;47.328;9.640;2023-04-24T05:25:01;1.52;;;0.90;;
36829;SDS011;22767;47.328;9.640;2023-04-24T05:27:34;2.00;;;0.73;;
36829;SDS011;22767;47.328;9.640;2023-04-24T05:30:00;2.60;;;0.80;;
36829;SDS011;22767;47.328;9.640;2023-04-24T05:32:26;0.70;;;0.57;;
36829;SDS011;22767;47.328;9.640;2023-04-24T05:34:53;1.27;;;0.60;;
36829;SDS011;22767;47.328;9.640;2023-04-24T05:37:25;1.65;;;0.70;;
36829;SDS011;22767;47.328;9.640;2023-04-24T05:39:51;1.67;;;0.85;;
36829;SDS011;22767;47.328;9.640;2023-04-24T05:42:18;1.02;;;0.57;;
36829;SDS011;22767;47.328;9.640;2023-04-24T05:44:44;0.85;;;0.60;;
36829;SDS011;22767;47.328;9.640;2023-04-24T05:47:10;1.05;;;0.60;;
36829;SDS011;22767;47.328;9.640;2023-04-24T05:49:36;2.17;;;0.73;;
36829;SDS011;22767;47.328;9.640;2023-04-24T05:52:02;1.20;;;0.65;;
36829;SDS011;22767;47.328;9.640;2023-04-24T05:54:36;1.13;;;0.60;;
36829;SDS011;22767;47.328;9.640;2023-04-24T05:59:32;0.43;;;0.40;;
36829;SDS011;22767;47.328;9.640;2023-04-24T06:01:58;3.25;;;0.68;;
36829;SDS011;22767;47.328;9.640;2023-04-24T06:04:25;0.82;;;0.50;;
36829;SDS011;22767;47.328;9.640;2023-04-24T06:06:51;3.58;;;0.80;;
36829;SDS011;22767;47.328;9.640;2023-04-24T06:09:21;0.60;;;0.60;;
36829;SDS011;22767;47.328;9.640;2023-04-24T06:11:47;0.82;;;0.60;;
36829;SDS011;22767;47.328;9.640;2023-04-24T06:14:13;0.70;;;0.40;;
36829;SDS011;22767;47.328;9.640;2023-04-24T06:16:41;0.80;;;0.45;;
36829;SDS011;22767;47.328;9.640;2023-04-24T06:19:08;1.00;;;0.45;;
36829;SDS011;22767;47.328;9.640;2023-04-24T06:21:34;1.65;;;0.47;;
36829;SDS011;22767;47.328;9.640;2023-04-24T06:24:00;0.68;;;0.40;;
36829;SDS011;22767;47.328;9.640;2023-04-24T06:26:27;2.67;;;0.55;;
36829;SDS011;22767;47.328;9.640;2023-04-24T06:28:53;1.45;;;1.00;;
36829;SDS011;22767;47.328;9.640;2023-04-24T06:31:19;0.95;;;0.70;;
36829;SDS011;22767;47.328;9.640;2023-04-24T06:33:45;5.53;;;0.90;;
36829;SDS011;22767;47.328;9.640;2023-04-24T06:36:12;1.50;;;0.93;;
36829;SDS011;22767;47.328;9.640;2023-04-24T06:38:38;1.42;;;1.00;;
36829;SDS011;22767;47.328;9.640;2023-04-24T06:41:10;2.05;;;1.67;;
36829;SDS011;22767;47.328;9.640;2023-04-24T06:46:02;3.75;;;1.42;;
36829;SDS011;22767;47.328;9.640;2023-04-24T06:48:28;1.42;;;0.98;;
36829;SDS011;22767;47.328;9.640;2023-04-24T06:50:55;3.10;;;1.02;;
36829;SDS011;22767;47.328;9.640;2023-04-24T06:53:21;2.38;;;0.98;;
36829;SDS011;22767;47.328;9.640;2023-04-24T06:55:47;3.50;;;1.23;;
36829;SDS011;22767;47.328;9.640;2023-04-24T06:58:19;2.13;;;1.20;;
36829;SDS011;22767;47.328;9.640;2023-04-24T07:00:45;0.50;;;0.50;;
36829;SDS011;22767;47.328;9.640;2023-04-24T07:03:11;1.75;;;0.47;;
36829;SDS011;22767;47.328;9.640;2023-04-24T07:05:37;0.10;;;0.10;;
36829;SDS011;22767;47.328;9.640;2023-04-24T07:08:04;0.52;;;0.20;;
36829;SDS011;22767;47.328;9.640;2023-04-24T07:10:31;1.23;;;0.30;;
36829;SDS011;22767;47.328;9.640;2023-04-24T07:13:00;0.57;;;0.20;;
36829;SDS011;22767;47.328;9.640;2023-04-24T07:15:26;0.90;;;0.30;;
36829;SDS011;22767;47.328;9.640;2023-04-24T07:17:52;0.28;;;0.15;;
36829;SDS011;22767;47.328;9.640;2023-04-24T07:20:18;0.00;;;0.00;;
36829;SDS011;22767;47.328;9.640;2023-04-24T07:22:45;0.30;;;0.05;;
36829;SDS011;22767;47.328;9.640;2023-04-24T07:25:11;1.25;;;0.10;;
36829;SDS011;22767;47.328;9.640;2023-04-24T07:27:43;0.20;;;0.10;;
36829;SDS011;22767;47.328;9.640;2023-04-24T07:30:09;0.52;;;0.30;;
36829;SDS011;22767;47.328;9.640;2023-04-24T07:32:36;1.15;;;0.17;;
36829;SDS011;22767;47.328;9.640;2023-04-24T07:35:02;0.30;;;0.10;;
36829;SDS011;22767;47.328;9.640;2023-04-24T07:37:28;0.20;;;0.20;;
36829;SDS011;22767;47.328;9.640;2023-04-24T07:39:55;2.58;;;0.60;;
36829;SDS011;22767;47.328;9.640;2023-04-24T07:42:27;0.20;;;0.20;;
36829;SDS011;22767;47.328;9.640;2023-04-24T07:44:55;0.95;;;0.20;;
36829;SDS011;22767;47.328;9.640;2023-04-24T07:47:21;0.68;;;0.30;;
36829;SDS011;22767;47.328;9.640;2023-04-24T07:49:47;1.52;;;0.10;;
36829;SDS011;22767;47.328;9.640;2023-04-24T07:52:13;1.67;;;0.20;;
36829;SDS011;22767;47.328;9.640;2023-04-24T07:54:39;0.17;;;0.10;;
36829;SDS011;22767;47.328;9.640;2023-04-24T07:57:12;1.08;;;0.20;;
36829;SDS011;22767;47.328;9.640;2023-04-24T07:59:38;0.20;;;0.20;;
36829;SDS011;22767;47.328;9.640;2023-04-24T08:02:11;0.85;;;0.30;;
36829;SDS011;22767;47.328;9.640;2023-04-24T08:04:37;0.50;;;0.17;;
36829;SDS011;22767;47.328;9.640;2023-04-24T08:07:03;0.20;;;0.20;;
36829;SDS011;22767;47.328;9.640;2023-04-24T08:09:30;0.30;;;0.20;;
36829;SDS011;22767;47.328;9.640;2023-04-24T08:12:02;2.30;;;0.30;;
36829;SDS011;22767;47.328;9.640;2023-04-24T08:14:28;0.55;;;0.30;;
36829;SDS011;22767;47.328;9.640;2023-04-24T08:16:55;0.82;;;0.32;;
36829;SDS011;22767;47.328;9.640;2023-04-24T08:19:21;3.47;;;0.45;;
36829;SDS011;22767;47.328;9.640;2023-04-24T08:21:47;0.28;;;0.20;;
36829;SDS011;22767;47.328;9.640;2023-04-24T08:24:13;0.52;;;0.30;;
36829;SDS011;22767;47.328;9.640;2023-04-24T08:26:46;0.68;;;0.40;;
36829;SDS011;22767;47.328;9.640;2023-04-24T08:29:15;0.65;;;0.30;;
36829;SDS011;22767;47.328;9.640;2023-04-24T08:31:41;1.25;;;0.40;;
36829;SDS011;22767;47.328;9.640;2023-04-24T08:34:07;1.55;;;0.40;;
36829;SDS011;22767;47.328;9.640;2023-04-24T08:36:33;0.80;;;0.45;;
36829;SDS011;22767;47.328;9.640;2023-04-24T08:39:00;1.00;;;0.38;;
36829;SDS011;22767;47.328;9.640;2023-04-24T08:41:33;2.85;;;0.85;;
36829;SDS011;22767;47.328;9.640;2023-04-24T08:43:59;2.03;;;0.85;;
36829;SDS011;22767;47.328;9.640;2023-04-24T08:46:27;1.35;;;0.40;;
36829;SDS011;22767;47.328;9.640;2023-04-24T08:48:54;1.70;;;0.50;;
36829;SDS011;22767;47.328;9.640;2023-04-24T08:51:20;1.10;;;0.50;;
36829;SDS011;22767;47.328;9.640;2023-04-24T08:53:46;0.70;;;0.60;;
36829;SDS011;22767;47.328;9.640;2023-04-24T08:56:12;0.95;;;0.50;;
36829;SDS011;22767;47.328;9.640;2023-04-24T08:58:38;2.15;;;0.40;;
36829;SDS011;22767;47.328;9.640;2023-04-24T09:01:05;1.08;;;0.40;;
36829;SDS011;22767;47.328;9.640;2023-04-24T09:03:38;0.82;;;0.40;;
36829;SDS011;22767;47.328;9.640;2023-04-24T09:06:05;0.50;;;0.40;;
36829;SDS011;22767;47.328;9.640;2023-04-24T09:08:31;0.55;;;0.55;;
36829;SDS011;22767;47.328;9.640;2023-04-24T09:10:58;1.23;;;0.40;;
36829;SDS011;22767;47.328;9.640;2023-04-24T09:13:27;0.70;;;0.30;;
36829;SDS011;22767;47.328;9.640;2023-04-24T09:15:53;1.67;;;0.40;;
36829;SDS011;22767;47.328;9.640;2023-04-24T09:18:22;0.90;;;0.40;;
36829;SDS011;22767;47.328;9.640;2023-04-24T09:21:05;0.82;;;0.32;;
36829;SDS011;22767;47.328;9.640;2023-04-24T09:23:39;0.93;;;0.20;;
36829;SDS011;22767;47.328;9.640;2023-04-24T09:26:05;0.88;;;0.50;;
36829;SDS011;22767;47.328;9.640;2023-04-24T09:28:39;0.30;;;0.30;;
36829;SDS011;22767;47.328;9.640;2023-04-24T09:31:13;0.30;;;0.30;;
36829;SDS011;22767;47.328;9.640;2023-04-24T09:36:29;0.30;;;0.13;;
36829;SDS011;22767;47.328;9.640;2023-04-24T09:38:58;2.90;;;0.30;;
36829;SDS011;22767;47.328;9.640;2023-04-24T09:41:25;0.28;;;0.20;;
36829;SDS011;22767;47.328;9.640;2023-04-24T09:43:53;0.25;;;0.20;;
36829;SDS011;22767;47.328;9.640;2023-04-24T09:46:19;2.40;;;0.93;;
36829;SDS011;22767;47.328;9.640;2023-04-24T09:48:47;1.08;;;0.25;;
36829;SDS011;22767;47.328;9.640;2023-04-24T09:51:13;0.30;;;0.30;;
36829;SDS011;22767;47.328;9.640;2023-04-24T09:53:45;0.65;;;0.40;;
36829;SDS011;22767;47.328;9.640;2023-04-24T09:56:11;1.50;;;0.40;;
36829;SDS011;22767;47.328;9.640;2023-04-24T09:58:38;1.13;;;0.47;;
36829;SDS011;22767;47.328;9.640;2023-04-24T10:01:04;0.55;;;0.30;;
36829;SDS011;22767;47.328;9.640;2023-04-24T10:03:37;0.65;;;0.20;;
36829;SDS011;22767;47.328;9.640;2023-04-24T10:06:03;1.02;;;0.35;;
36829;SDS011;22767;47.328;9.640;2023-04-24T10:08:34;0.98;;;0.47;;
36829;SDS011;22767;47.328;9.640;2023-04-24T10:11:00;0.40;;;0.40;;
36829;SDS011;22767;47.328;9.640;2023-04-24T10:13:26;0.40;;;0.40;;
36829;SDS011;22767;47.328;9.640;2023-04-24T10:15:53;1.15;;;0.40;;
36829;SDS011;22767;47.328;9.640;2023-04-24T10:18:20;0.65;;;0.40;;
36829;SDS011;22767;47.328;9.640;2023-04-24T10:20:46;0.40;;;0.30;;
36829;SDS011;22767;47.328;9.640;2023-04-24T10:23:13;1.08;;;0.43;;
36829;SDS011;22767;47.328;9.640;2023-04-24T10:25:40;0.82;;;0.60;;
36829;SDS011;22767;47.328;9.640;2023-04-24T10:28:06;1.23;;;0.45;;
36829;SDS011;22767;47.328;9.640;2023-04-24T10:30:33;0.70;;;0.70;;
36829;SDS011;22767;47.328;9.640;2023-04-24T10:33:03;2.17;;;0.77;;
36829;SDS011;22767;47.328;9.640;2023-04-24T10:35:40;2.00;;;0.90;;
36829;SDS011;22767;47.328;9.640;2023-04-24T10:38:13;1.70;;;0.88;;
36829;SDS011;22767;47.328;9.640;2023-04-24T10:43:06;1.85;;;0.60;;
36829;SDS011;22767;47.328;9.640;2023-04-24T10:45:36;1.48;;;0.70;;
36829;SDS011;22767;47.328;9.640;2023-04-24T10:48:08;1.23;;;0.80;;
36829;SDS011;22767;47.328;9.640;2023-04-24T10:50:45;1.10;;;0.70;;
36829;SDS011;22767;47.328;9.640;2023-04-24T10:53:12;1.33;;;0.60;;
36829;SDS011;22767;47.328;9.640;2023-04-24T10:55:43;3.70;;;0.82;;
36829;SDS011;22767;47.328;9.640;2023-04-24T10:58:18;3.50;;;1.23;;
36829;SDS011;22767;47.328;9.640;2023-04-24T11:00:55;1.67;;;0.80;;
36829;SDS011;22767;47.328;9.640;2023-04-24T11:03:26;1.90;;;0.98;;
36829;SDS011;22767;47.328;9.640;2023-04-24T11:10:50;1.65;;;1.00;;
36829;SDS011;22767;47.328;9.640;2023-04-24T11:15:46;1.75;;;1.05;;
36829;SDS011;22767;47.328;9.640;2023-04-24T11:18:38;1.70;;;1.20;;
36829;SDS011;22767;47.328;9.640;2023-04-24T11:21:11;1.38;;;0.88;;
36829;SDS011;22767;47.328;9.640;2023-04-24T11:23:37;1.77;;;1.00;;
36829;SDS011;22767;47.328;9.640;2023-04-24T11:26:11;1.83;;;1.10;;
36829;SDS011;22767;47.328;9.640;2023-04-24T11:28:43;1.25;;;0.80;;
36829;SDS011;22767;47.328;9.640;2023-04-24T11:33:54;1.67;;;1.00;;
36829;SDS011;22767;47.328;9.640;2023-04-24T11:36:20;2.08;;;1.13;;
36829;SDS011;22767;47.328;9.640;2023-04-24T11:38:46;1.73;;;1.10;;
36829;SDS011;22767;47.328;9.640;2023-04-24T11:41:12;2.63;;;1.08;;
36829;SDS011;22767;47.328;9.640;2023-04-24T11:43:39;1.85;;;0.95;;
36829;SDS011;22767;47.328;9.640;2023-04-24T11:46:05;1.90;;;1.10;;
36829;SDS011;22767;47.328;9.640;2023-04-24T11:48:34;2.75;;;1.50;;
36829;SDS011;22767;47.328;9.640;2023-04-24T11:51:05;2.72;;;1.35;;
36829;SDS011;22767;47.328;9.640;2023-04-24T11:53:31;4.07;;;1.45;;
36829;SDS011;22767;47.328;9.640;2023-04-24T11:56:04;2.05;;;1.10;;
36829;SDS011;22767;47.328;9.640;2023-04-24T11:58:40;2.38;;;1.15;;
36829;SDS011;22767;47.328;9.640;2023-04-24T12:01:06;2.08;;;1.42;;
36829;SDS011;22767;47.328;9.640;2023-04-24T12:03:32;2.13;;;1.10;;
36829;SDS011;22767;47.328;9.640;2023-04-24T12:06:07;2.72;;;1.13;;
36829;SDS011;22767;47.328;9.640;2023-04-24T12:08:34;2.22;;;1.10;;
36829;SDS011;22767;47.328;9.640;2023-04-24T12:11:05;0.88;;;0.88;;
36829;SDS011;22767;47.328;9.640;2023-04-24T12:13:34;2.20;;;1.52;;
36829;SDS011;22767;47.328;9.640;2023-04-24T12:16:07;2.95;;;1.35;;
36829;SDS011;22767;47.328;9.640;2023-04-24T12:18:33;2.72;;;1.40;;
36829;SDS011;22767;47.328;9.640;2023-04-24T12:24:00;2.13;;;1.13;;
36829;SDS011;22767;47.328;9.640;2023-04-24T12:26:27;1.50;;;1.10;;
36829;SDS011;22767;47.328;9.640;2023-04-24T12:28:54;1.42;;;1.10;;
36829;SDS011;22767;47.328;9.640;2023-04-24T12:31:20;3.65;;;1.70;;
36829;SDS011;22767;47.328;9.640;2023-04-24T12:33:47;2.95;;;1.17;;
36829;SDS011;22767;47.328;9.640;2023-04-24T12:36:13;3.03;;;1.13;;
36829;SDS011;22767;47.328;9.640;2023-04-24T12:38:39;3.35;;;1.55;;
36829;SDS011;22767;47.328;9.640;2023-04-24T12:41:09;3.45;;;1.95;;
36829;SDS011;22767;47.328;9.640;2023-04-24T12:43:36;1.83;;;1.38;;
36829;SDS011;22767;47.328;9.640;2023-04-24T12:46:09;3.95;;;1.42;;
36829;SDS011;22767;47.328;9.640;2023-04-24T12:48:35;4.50;;;1.55;;
36829;SDS011;22767;47.328;9.640;2023-04-24T12:51:01;2.40;;;1.33;;
36829;SDS011;22767;47.328;9.640;2023-04-24T12:53:27;3.05;;;1.10;;
36829;SDS011;22767;47.328;9.640;2023-04-24T12:55:57;1.92;;;1.40;;
36829;SDS011;22767;47.328;9.640;2023-04-24T12:58:23;4.32;;;1.77;;
36829;SDS011;22767;47.328;9.640;2023-04-24T13:00:49;3.60;;;1.30;;
36829;SDS011;22767;47.328;9.640;2023-04-24T13:03:15;2.15;;;1.30;;
36829;SDS011;22767;47.328;9.640;2023-04-24T13:05:42;1.70;;;1.08;;
36829;SDS011;22767;47.328;9.640;2023-04-24T13:08:08;2.13;;;1.20;;
36829;SDS011;22767;47.328;9.640;2023-04-24T13:10:34;1.63;;;1.13;;
36829;SDS011;22767;47.328;9.640;2023-04-24T13:13:00;2.05;;;1.30;;
36829;SDS011;22767;47.328;9.640;2023-04-24T13:15:27;1.42;;;1.05;;
36829;SDS011;22767;47.328;9.640;2023-04-24T13:17:53;3.10;;;1.20;;
36829;SDS011;22767;47.328;9.640;2023-04-24T13:20:26;2.88;;;1.00;;
36829;SDS011;22767;47.328;9.640;2023-04-24T13:22:52;1.52;;;0.90;;
36829;SDS011;22767;47.328;9.640;2023-04-24T13:25:18;4.10;;;1.30;;
36829;SDS011;22767;47.328;9.640;2023-04-24T13:27:45;2.45;;;1.10;;
36829;SDS011;22767;47.328;9.640;2023-04-24T13:30:11;2.78;;;1.20;;
36829;SDS011;22767;47.328;9.640;2023-04-24T13:32:37;1.33;;;0.98;;
36829;SDS011;22767;47.328;9.640;2023-04-24T13:35:04;3.53;;;1.10;;
36829;SDS011;22767;47.328;9.640;2023-04-24T13:37:30;2.67;;;1.10;;
36829;SDS011;22767;47.328;9.640;2023-04-24T13:39:56;1.85;;;0.70;;
36829;SDS011;22767;47.328;9.640;2023-04-24T13:42:22;1.63;;;1.00;;
36829;SDS011;22767;47.328;9.640;2023-04-24T13:44:48;2.03;;;1.00;;
36829;SDS011;22767;47.328;9.640;2023-04-24T13:47:22;3.08;;;1.42;;
36829;SDS011;22767;47.328;9.640;2023-04-24T13:52:14;3.80;;;0.85;;
36829;SDS011;22767;47.328;9.640;2023-04-24T13:54:40;2.13;;;1.40;;
36829;SDS011;22767;47.328;9.640;2023-04-24T13:57:06;1.52;;;0.98;;
36829;SDS011;22767;47.328;9.640;2023-04-24T13:59:33;2.63;;;1.33;;
36829;SDS011;22767;47.328;9.640;2023-04-24T14:01:59;2.42;;;1.23;;
36829;SDS011;22767;47.328;9.640;2023-04-24T14:04:25;2.30;;;1.17;;
36829;SDS011;22767;47.328;9.640;2023-04-24T14:06:58;1.67;;;1.10;;
36829;SDS011;22767;47.328;9.640;2023-04-24T14:09:24;1.63;;;1.00;;
36829;SDS011;22767;47.328;9.640;2023-04-24T14:11:51;1.83;;;1.25;;
36829;SDS011;22767;47.328;9.640;2023-04-24T14:14:17;1.13;;;0.90;;
36829;SDS011;22767;47.328;9.640;2023-04-24T14:16:43;2.70;;;1.00;;
36829;SDS011;22767;47.328;9.640;2023-04-24T14:19:09;1.58;;;0.73;;
36829;SDS011;22767;47.328;9.640;2023-04-24T14:21:35;4.00;;;0.75;;
36829;SDS011;22767;47.328;9.640;2023-04-24T14:24:08;1.10;;;0.82;;
36829;SDS011;22767;47.328;9.640;2023-04-24T14:26:34;1.83;;;0.70;;
36829;SDS011;22767;47.328;9.640;2023-04-24T14:29:00;0.70;;;0.70;;
36829;SDS011;22767;47.328;9.640;2023-04-24T14:31:27;0.73;;;0.68;;
36829;SDS011;22767;47.328;9.640;2023-04-24T14:33:53;2.33;;;0.73;;
36829;SDS011;22767;47.328;9.640;2023-04-24T14:36:19;0.60;;;0.60;;
36829;SDS011;22767;47.328;9.640;2023-04-24T14:38:45;2.25;;;0.70;;
36829;SDS011;22767;47.328;9.640;2023-04-24T14:41:18;1.48;;;0.60;;
36829;SDS011;22767;47.328;9.640;2023-04-24T14:43:44;0.70;;;0.60;;
36829;SDS011;22767;47.328;9.640;2023-04-24T14:46:10;1.98;;;0.90;;
36829;SDS011;22767;47.328;9.640;2023-04-24T14:48:36;2.30;;;0.77;;
36829;SDS011;22767;47.328;9.640;2023-04-24T14:51:09;4.47;;;0.90;;
36829;SDS011;22767;47.328;9.640;2023-04-24T14:53:42;2.00;;;1.00;;
36829;SDS011;22767;47.328;9.640;2023-04-24T14:56:08;2.28;;;0.90;;
36829;SDS011;22767;47.328;9.640;2023-04-24T14:58:34;1.27;;;0.88;;
36829;SDS011;22767;47.328;9.640;2023-04-24T15:01:00;0.88;;;0.70;;
36829;SDS011;22767;47.328;9.640;2023-04-24T15:03:26;2.10;;;0.80;;
36829;SDS011;22767;47.328;9.640;2023-04-24T15:05:52;2.67;;;1.15;;
36829;SDS011;22767;47.328;9.640;2023-04-24T15:08:18;2.60;;;0.80;;
36829;SDS011;22767;47.328;9.640;2023-04-24T15:10:44;1.35;;;0.63;;
36829;SDS011;22767;47.328;9.640;2023-04-24T15:13:10;1.60;;;0.85;;
36829;SDS011;22767;47.328;9.640;2023-04-24T15:15:36;1.73;;;0.50;;
36829;SDS011;22767;47.328;9.640;2023-04-24T15:18:03;0.73;;;0.50;;